Assonet, Massachusetts
Current Conditions -  °F | °C
As of 3:52 AM on Thursday 23 Oct 2014 (Local Time) from KTAN Reporting Station
Light Rain Light Rain  
Wind Chill: 53°   Ceiling: 1100
Heat Index: 53°   Visibility: 10mi
Dew Point: 50°   Wind: 18mph
Humidity: 89%   Direction: 360°N
Pressure: 29.62"   Gusts: 29mph
Location:  41.8°N, 71.07°W
Report Text: KTAN 230752Z AUTO 36016G25KT 10SM -RA BKN011 BKN024 OVC095 12/10 A2962 RMK AO2 PK WND 01030/0729 SLP029 P0002 T01170100
Loading
Personal Weather Stations






























Interactive Weather Map New forecast layout! Learn more

10-Day Weather Forecast

Advertisements
Track Severe Weather on mobile